sensor_id;sensor_type;location;lat;lon;timestamp;pressure;altitude;pressure_sealevel;temperature
73265;BMP280;61493;51.008;14.088;2023-11-19T00:01:01;97945.41;;;1.57
73265;BMP280;61493;51.008;14.088;2023-11-19T00:03:26;97930.09;;;1.55
73265;BMP280;61493;51.008;14.088;2023-11-19T00:05:51;97931.22;;;1.51
73265;BMP280;61493;51.008;14.088;2023-11-19T00:08:16;97928.22;;;1.42
73265;BMP280;61493;51.008;14.088;2023-11-19T00:10:42;97925.63;;;1.34
73265;BMP280;61493;51.008;14.088;2023-11-19T00:13:07;97929.34;;;1.30
73265;BMP280;61493;51.008;14.088;2023-11-19T00:15:33;97921.91;;;1.32
73265;BMP280;61493;51.008;14.088;2023-11-19T00:17:58;97909.59;;;1.40
73265;BMP280;61493;51.008;14.088;2023-11-19T00:20:23;97895.41;;;1.41
73265;BMP280;61493;51.008;14.088;2023-11-19T00:22:49;97881.97;;;1.39
73265;BMP280;61493;51.008;14.088;2023-11-19T00:25:18;97876.75;;;1.39
73265;BMP280;61493;51.008;14.088;2023-11-19T00:27:43;97858.84;;;1.41
73265;BMP280;61493;51.008;14.088;2023-11-19T00:30:12;97854.75;;;1.40
73265;BMP280;61493;51.008;14.088;2023-11-19T00:32:38;97852.88;;;1.44
73265;BMP280;61493;51.008;14.088;2023-11-19T00:35:08;97842.41;;;1.47
73265;BMP280;61493;51.008;14.088;2023-11-19T00:37:33;97828.25;;;1.48
73265;BMP280;61493;51.008;14.088;2023-11-19T00:39:59;97845.03;;;1.47
73265;BMP280;61493;51.008;14.088;2023-11-19T00:42:24;97832.00;;;1.51
73265;BMP280;61493;51.008;14.088;2023-11-19T00:44:52;97837.56;;;1.53
73265;BMP280;61493;51.008;14.088;2023-11-19T00:47:18;97843.91;;;1.59
73265;BMP280;61493;51.008;14.088;2023-11-19T00:49:46;97835.72;;;1.57
73265;BMP280;61493;51.008;14.088;2023-11-19T00:52:13;97828.63;;;1.57
73265;BMP280;61493;51.008;14.088;2023-11-19T00:54:38;97817.03;;;1.58
73265;BMP280;61493;51.008;14.088;2023-11-19T00:57:04;97827.50;;;1.62
73265;BMP280;61493;51.008;14.088;2023-11-19T00:59:31;97821.91;;;1.60
73265;BMP280;61493;51.008;14.088;2023-11-19T01:01:56;97820.75;;;1.61
73265;BMP280;61493;51.008;14.088;2023-11-19T01:04:21;97825.25;;;1.64
73265;BMP280;61493;51.008;14.088;2023-11-19T01:06:47;97808.06;;;1.67
73265;BMP280;61493;51.008;14.088;2023-11-19T01:09:12;97803.97;;;1.66
73265;BMP280;61493;51.008;14.088;2023-11-19T01:11:37;97818.53;;;1.63
73265;BMP280;61493;51.008;14.088;2023-11-19T01:14:03;97802.47;;;1.61
73265;BMP280;61493;51.008;14.088;2023-11-19T01:16:28;97791.28;;;1.64
73265;BMP280;61493;51.008;14.088;2023-11-19T01:18:53;97785.72;;;1.62
73265;BMP280;61493;51.008;14.088;2023-11-19T01:21:19;97788.31;;;1.62
73265;BMP280;61493;51.008;14.088;2023-11-19T01:23:45;97766.66;;;1.58
73265;BMP280;61493;51.008;14.088;2023-11-19T01:26:11;97758.09;;;1.65
73265;BMP280;61493;51.008;14.088;2023-11-19T01:28:40;97735.31;;;1.65
73265;BMP280;61493;51.008;14.088;2023-11-19T01:31:09;97726.34;;;1.66
73265;BMP280;61493;51.008;14.088;2023-11-19T01:33:38;97722.97;;;1.69
73265;BMP280;61493;51.008;14.088;2023-11-19T01:36:05;97724.13;;;1.68
73265;BMP280;61493;51.008;14.088;2023-11-19T01:38:30;97717.00;;;1.72
73265;BMP280;61493;51.008;14.088;2023-11-19T01:40:58;97731.19;;;1.71
73265;BMP280;61493;51.008;14.088;2023-11-19T01:43:33;97716.25;;;1.75
73265;BMP280;61493;51.008;14.088;2023-11-19T01:46:00;97709.91;;;1.76
73265;BMP280;61493;51.008;14.088;2023-11-19T01:48:25;97722.56;;;1.78
73265;BMP280;61493;51.008;14.088;2023-11-19T01:50:51;97700.94;;;1.77
73265;BMP280;61493;51.008;14.088;2023-11-19T01:53:21;97705.06;;;1.71
73265;BMP280;61493;51.008;14.088;2023-11-19T01:55:47;97702.81;;;1.77
73265;BMP280;61493;51.008;14.088;2023-11-19T01:58:13;97692.72;;;1.79
73265;BMP280;61493;51.008;14.088;2023-11-19T02:00:38;97699.44;;;1.80
73265;BMP280;61493;51.008;14.088;2023-11-19T02:03:05;97691.22;;;1.82
73265;BMP280;61493;51.008;14.088;2023-11-19T02:05:33;97691.97;;;1.82
73265;BMP280;61493;51.008;14.088;2023-11-19T02:07:59;97694.50;;;1.93
73265;BMP280;61493;51.008;14.088;2023-11-19T02:10:24;97694.16;;;1.91
73265;BMP280;61493;51.008;14.088;2023-11-19T02:12:50;97667.63;;;1.89
73265;BMP280;61493;51.008;14.088;2023-11-19T02:15:16;97658.34;;;1.88
73265;BMP280;61493;51.008;14.088;2023-11-19T02:17:44;97647.84;;;1.91
73265;BMP280;61493;51.008;14.088;2023-11-19T02:20:10;97642.66;;;1.88
73265;BMP280;61493;51.008;14.088;2023-11-19T02:22:37;97643.34;;;1.92
73265;BMP280;61493;51.008;14.088;2023-11-19T02:25:07;97638.13;;;1.95
73265;BMP280;61493;51.008;14.088;2023-11-19T02:27:51;97643.00;;;1.93
73265;BMP280;61493;51.008;14.088;2023-11-19T02:30:20;97631.03;;;1.96
73265;BMP280;61493;51.008;14.088;2023-11-19T02:32:46;97619.06;;;1.95
73265;BMP280;61493;51.008;14.088;2023-11-19T02:35:11;97616.47;;;1.98
73265;BMP280;61493;51.008;14.088;2023-11-19T02:37:37;97621.25;;;2.07
73265;BMP280;61493;51.008;14.088;2023-11-19T02:40:03;97598.44;;;2.11
73265;BMP280;61493;51.008;14.088;2023-11-19T02:42:30;97586.53;;;2.07
73265;BMP280;61493;51.008;14.088;2023-11-19T02:44:56;97585.03;;;2.09
73265;BMP280;61493;51.008;14.088;2023-11-19T02:47:25;97573.84;;;2.05
73265;BMP280;61493;51.008;14.088;2023-11-19T02:49:51;97580.91;;;2.08
73265;BMP280;61493;51.008;14.088;2023-11-19T02:52:18;97564.88;;;2.06
73265;BMP280;61493;51.008;14.088;2023-11-19T02:54:43;97564.44;;;2.15
73265;BMP280;61493;51.008;14.088;2023-11-19T02:57:09;97564.03;;;2.16
73265;BMP280;61493;51.008;14.088;2023-11-19T02:59:38;97551.31;;;2.22
73265;BMP280;61493;51.008;14.088;2023-11-19T03:02:08;97548.31;;;2.23
73265;BMP280;61493;51.008;14.088;2023-11-19T03:04:37;97543.84;;;2.24
73265;BMP280;61493;51.008;14.088;2023-11-19T03:07:04;97528.50;;;2.22
73265;BMP280;61493;51.008;14.088;2023-11-19T03:09:30;97525.56;;;2.20
73265;BMP280;61493;51.008;14.088;2023-11-19T03:11:55;97509.47;;;2.22
73265;BMP280;61493;51.008;14.088;2023-11-19T03:14:20;97512.81;;;2.26
73265;BMP280;61493;51.008;14.088;2023-11-19T03:16:48;97507.63;;;2.19
73265;BMP280;61493;51.008;14.088;2023-11-19T03:19:13;97503.47;;;2.25
73265;BMP280;61493;51.008;14.088;2023-11-19T03:21:38;97494.19;;;2.20
73265;BMP280;61493;51.008;14.088;2023-11-19T03:24:04;97477.75;;;2.20
73265;BMP280;61493;51.008;14.088;2023-11-19T03:26:29;97477.38;;;2.21
73265;BMP280;61493;51.008;14.088;2023-11-19T03:28:55;97486.72;;;2.19
73265;BMP280;61493;51.008;14.088;2023-11-19T03:31:22;97506.50;;;2.20
73265;BMP280;61493;51.008;14.088;2023-11-19T03:33:47;97491.97;;;2.19
73265;BMP280;61493;51.008;14.088;2023-11-19T03:36:12;97489.75;;;2.17
73265;BMP280;61493;51.008;14.088;2023-11-19T03:38:38;97491.19;;;2.22
73265;BMP280;61493;51.008;14.088;2023-11-19T03:41:14;97478.09;;;2.22
73265;BMP280;61493;51.008;14.088;2023-11-19T03:43:40;97480.34;;;2.23
73265;BMP280;61493;51.008;14.088;2023-11-19T03:46:19;97479.56;;;2.26
73265;BMP280;61493;51.008;14.088;2023-11-19T03:48:44;97474.69;;;2.29
73265;BMP280;61493;51.008;14.088;2023-11-19T03:51:11;97457.88;;;2.30
73265;BMP280;61493;51.008;14.088;2023-11-19T03:53:41;97450.03;;;2.30
73265;BMP280;61493;51.008;14.088;2023-11-19T03:56:06;97462.63;;;2.38
73265;BMP280;61493;51.008;14.088;2023-11-19T03:58:32;97453.28;;;2.37
73265;BMP280;61493;51.008;14.088;2023-11-19T04:00:58;97433.09;;;2.38
73265;BMP280;61493;51.008;14.088;2023-11-19T04:03:23;97424.16;;;2.35
73265;BMP280;61493;51.008;14.088;2023-11-19T04:05:48;97412.25;;;2.34
73265;BMP280;61493;51.008;14.088;2023-11-19T04:08:14;97416.28;;;2.39
73265;BMP280;61493;51.008;14.088;2023-11-19T04:10:40;97413.34;;;2.37
73265;BMP280;61493;51.008;14.088;2023-11-19T04:13:05;97425.56;;;2.43
73265;BMP280;61493;51.008;14.088;2023-11-19T04:15:30;97411.34;;;2.44
73265;BMP280;61493;51.008;14.088;2023-11-19T04:17:56;97413.66;;;2.42
73265;BMP280;61493;51.008;14.088;2023-11-19T04:20:21;97388.66;;;2.38
73265;BMP280;61493;51.008;14.088;2023-11-19T04:22:46;97391.28;;;2.38
73265;BMP280;61493;51.008;14.088;2023-11-19T04:25:11;97398.75;;;2.36
73265;BMP280;61493;51.008;14.088;2023-11-19T04:27:37;97383.06;;;2.36
73265;BMP280;61493;51.008;14.088;2023-11-19T04:30:02;97377.84;;;2.36
73265;BMP280;61493;51.008;14.088;2023-11-19T04:32:28;97391.03;;;2.29
73265;BMP280;61493;51.008;14.088;2023-11-19T04:34:54;97386.22;;;2.23
73265;BMP280;61493;51.008;14.088;2023-11-19T04:37:19;97373.16;;;2.23
73265;BMP280;61493;51.008;14.088;2023-11-19T04:39:44;97384.34;;;2.24
73265;BMP280;61493;51.008;14.088;2023-11-19T04:42:11;97364.91;;;2.25
73265;BMP280;61493;51.008;14.088;2023-11-19T04:44:37;97372.81;;;2.21
73265;BMP280;61493;51.008;14.088;2023-11-19T04:47:02;97359.72;;;2.21
73265;BMP280;61493;51.008;14.088;2023-11-19T04:49:28;97363.50;;;2.20
73265;BMP280;61493;51.008;14.088;2023-11-19T04:51:53;97357.91;;;2.18
73265;BMP280;61493;51.008;14.088;2023-11-19T04:54:18;97363.88;;;2.19
73265;BMP280;61493;51.008;14.088;2023-11-19T04:56:47;97341.44;;;2.21
73265;BMP280;61493;51.008;14.088;2023-11-19T04:59:12;97338.81;;;2.21
73265;BMP280;61493;51.008;14.088;2023-11-19T05:01:38;97362.41;;;2.18
73265;BMP280;61493;51.008;14.088;2023-11-19T05:04:03;97329.94;;;2.15
73265;BMP280;61493;51.008;14.088;2023-11-19T05:06:29;97328.09;;;2.12
73265;BMP280;61493;51.008;14.088;2023-11-19T05:08:59;97341.50;;;2.14
73265;BMP280;61493;51.008;14.088;2023-11-19T05:11:36;97325.06;;;2.17
73265;BMP280;61493;51.008;14.088;2023-11-19T05:14:05;97318.69;;;2.18
73265;BMP280;61493;51.008;14.088;2023-11-19T05:16:30;97319.84;;;2.14
73265;BMP280;61493;51.008;14.088;2023-11-19T05:18:56;97316.88;;;2.15
73265;BMP280;61493;51.008;14.088;2023-11-19T05:21:21;97324.28;;;2.20
73265;BMP280;61493;51.008;14.088;2023-11-19T05:23:46;97315.69;;;2.20
73265;BMP280;61493;51.008;14.088;2023-11-19T05:26:23;97315.03;;;2.12
73265;BMP280;61493;51.008;14.088;2023-11-19T05:28:49;97315.00;;;2.16
73265;BMP280;61493;51.008;14.088;2023-11-19T05:31:16;97301.19;;;2.15
73265;BMP280;61493;51.008;14.088;2023-11-19T05:33:42;97290.78;;;2.12
73265;BMP280;61493;51.008;14.088;2023-11-19T05:36:08;97313.09;;;2.16
73265;BMP280;61493;51.008;14.088;2023-11-19T05:38:35;97291.09;;;2.17
73265;BMP280;61493;51.008;14.088;2023-11-19T05:41:00;97290.72;;;2.15
73265;BMP280;61493;51.008;14.088;2023-11-19T05:43:25;97306.06;;;2.13
73265;BMP280;61493;51.008;14.088;2023-11-19T05:45:51;97285.97;;;2.07
73265;BMP280;61493;51.008;14.088;2023-11-19T05:48:16;97265.41;;;2.09
73265;BMP280;61493;51.008;14.088;2023-11-19T05:50:42;97271.72;;;2.11
73265;BMP280;61493;51.008;14.088;2023-11-19T05:53:07;97298.16;;;2.17
73265;BMP280;61493;51.008;14.088;2023-11-19T05:55:36;97301.19;;;2.15
73265;BMP280;61493;51.008;14.088;2023-11-19T05:58:02;97285.44;;;2.19
73265;BMP280;61493;51.008;14.088;2023-11-19T06:00:32;97255.34;;;2.07
73265;BMP280;61493;51.008;14.088;2023-11-19T06:02:57;97259.25;;;2.22
73265;BMP280;61493;51.008;14.088;2023-11-19T06:05:22;97238.53;;;2.08
73265;BMP280;61493;51.008;14.088;2023-11-19T06:07:48;97260.78;;;2.20
73265;BMP280;61493;51.008;14.088;2023-11-19T06:10:13;97245.94;;;2.13
73265;BMP280;61493;51.008;14.088;2023-11-19T06:12:41;97254.03;;;2.22
73265;BMP280;61493;51.008;14.088;2023-11-19T06:15:07;97264.16;;;2.20
73265;BMP280;61493;51.008;14.088;2023-11-19T06:17:34;97262.34;;;2.17
73265;BMP280;61493;51.008;14.088;2023-11-19T06:19:59;97255.16;;;2.21
73265;BMP280;61493;51.008;14.088;2023-11-19T06:22:24;97257.00;;;2.24
73265;BMP280;61493;51.008;14.088;2023-11-19T06:24:50;97269.34;;;2.24
73265;BMP280;61493;51.008;14.088;2023-11-19T06:27:15;97266.31;;;2.25
73265;BMP280;61493;51.008;14.088;2023-11-19T06:29:40;97259.19;;;2.30
73265;BMP280;61493;51.008;14.088;2023-11-19T06:32:06;97247.56;;;2.31
73265;BMP280;61493;51.008;14.088;2023-11-19T06:34:33;97229.72;;;2.25
73265;BMP280;61493;51.008;14.088;2023-11-19T06:36:58;97250.19;;;2.31
73265;BMP280;61493;51.008;14.088;2023-11-19T06:39:24;97217.34;;;2.30
73265;BMP280;61493;51.008;14.088;2023-11-19T06:41:49;97189.31;;;2.30
73265;BMP280;61493;51.008;14.088;2023-11-19T06:44:15;97206.88;;;2.30
73265;BMP280;61493;51.008;14.088;2023-11-19T06:46:40;97177.00;;;2.31
73265;BMP280;61493;51.008;14.088;2023-11-19T06:49:06;97179.28;;;2.29
73265;BMP280;61493;51.008;14.088;2023-11-19T06:51:33;97210.66;;;2.29
73265;BMP280;61493;51.008;14.088;2023-11-19T06:53:58;97216.81;;;2.38
73265;BMP280;61493;51.008;14.088;2023-11-19T06:56:24;97224.59;;;2.42
73265;BMP280;61493;51.008;14.088;2023-11-19T06:58:50;97208.13;;;2.45
73265;BMP280;61493;51.008;14.088;2023-11-19T07:01:17;97204.41;;;2.46
73265;BMP280;61493;51.008;14.088;2023-11-19T07:03:44;97218.94;;;2.47
73265;BMP280;61493;51.008;14.088;2023-11-19T07:06:10;97218.56;;;2.48
73265;BMP280;61493;51.008;14.088;2023-11-19T07:08:35;97228.56;;;2.54
73265;BMP280;61493;51.008;14.088;2023-11-19T07:11:01;97231.19;;;2.54
73265;BMP280;61493;51.008;14.088;2023-11-19T07:13:27;97222.25;;;2.51
73265;BMP280;61493;51.008;14.088;2023-11-19T07:15:55;97223.00;;;2.52
73265;BMP280;61493;51.008;14.088;2023-11-19T07:18:20;97212.47;;;2.55
73265;BMP280;61493;51.008;14.088;2023-11-19T07:20:47;97206.88;;;2.53
73265;BMP280;61493;51.008;14.088;2023-11-19T07:23:12;97224.41;;;2.56
73265;BMP280;61493;51.008;14.088;2023-11-19T07:25:39;97216.91;;;2.58
73265;BMP280;61493;51.008;14.088;2023-11-19T07:28:05;97218.50;;;2.52
73265;BMP280;61493;51.008;14.088;2023-11-19T07:30:30;97215.13;;;2.52
73265;BMP280;61493;51.008;14.088;2023-11-19T07:32:55;97228.91;;;2.56
73265;BMP280;61493;51.008;14.088;2023-11-19T07:35:20;97239.66;;;2.61
73265;BMP280;61493;51.008;14.088;2023-11-19T07:37:46;97249.72;;;2.63
73265;BMP280;61493;51.008;14.088;2023-11-19T07:40:13;97234.75;;;2.63
73265;BMP280;61493;51.008;14.088;2023-11-19T07:42:38;97241.16;;;2.62
73265;BMP280;61493;51.008;14.088;2023-11-19T07:45:04;97255.31;;;2.65
73265;BMP280;61493;51.008;14.088;2023-11-19T07:47:30;97256.09;;;2.62
73265;BMP280;61493;51.008;14.088;2023-11-19T07:49:56;97253.00;;;2.67
73265;BMP280;61493;51.008;14.088;2023-11-19T07:52:21;97260.00;;;2.73
73265;BMP280;61493;51.008;14.088;2023-11-19T07:54:46;97250.34;;;2.70
73265;BMP280;61493;51.008;14.088;2023-11-19T07:57:12;97251.75;;;2.75
73265;BMP280;61493;51.008;14.088;2023-11-19T07:59:37;97244.75;;;2.68
73265;BMP280;61493;51.008;14.088;2023-11-19T08:02:02;97233.84;;;2.73
73265;BMP280;61493;51.008;14.088;2023-11-19T08:04:28;97231.47;;;2.83
73265;BMP280;61493;51.008;14.088;2023-11-19T08:06:54;97239.59;;;2.88
73265;BMP280;61493;51.008;14.088;2023-11-19T08:09:19;97234.72;;;2.90
73265;BMP280;61493;51.008;14.088;2023-11-19T08:11:44;97229.75;;;2.96
73265;BMP280;61493;51.008;14.088;2023-11-19T08:14:11;97229.59;;;3.03
73265;BMP280;61493;51.008;14.088;2023-11-19T08:16:36;97247.47;;;3.08
73265;BMP280;61493;51.008;14.088;2023-11-19T08:19:03;97251.97;;;3.08
73265;BMP280;61493;51.008;14.088;2023-11-19T08:21:28;97244.84;;;3.08
73265;BMP280;61493;51.008;14.088;2023-11-19T08:23:53;97238.81;;;3.11
73265;BMP280;61493;51.008;14.088;2023-11-19T08:26:19;97236.81;;;3.19
73265;BMP280;61493;51.008;14.088;2023-11-19T08:28:44;97244.59;;;3.23
73265;BMP280;61493;51.008;14.088;2023-11-19T08:31:09;97243.50;;;3.24
73265;BMP280;61493;51.008;14.088;2023-11-19T08:33:35;97236.75;;;3.23
73265;BMP280;61493;51.008;14.088;2023-11-19T08:36:00;97229.91;;;3.29
73265;BMP280;61493;51.008;14.088;2023-11-19T08:38:26;97229.78;;;3.36
73265;BMP280;61493;51.008;14.088;2023-11-19T08:40:51;97215.94;;;3.35
73265;BMP280;61493;51.008;14.088;2023-11-19T08:43:17;97221.97;;;3.52
73265;BMP280;61493;51.008;14.088;2023-11-19T08:45:42;97204.16;;;3.63
73265;BMP280;61493;51.008;14.088;2023-11-19T08:48:08;97216.88;;;3.81
73265;BMP280;61493;51.008;14.088;2023-11-19T08:50:33;97212.72;;;3.84
73265;BMP280;61493;51.008;14.088;2023-11-19T08:52:58;97221.66;;;3.86
73265;BMP280;61493;51.008;14.088;2023-11-19T08:55:23;97218.75;;;3.81
73265;BMP280;61493;51.008;14.088;2023-11-19T08:57:49;97223.72;;;3.95
73265;BMP280;61493;51.008;14.088;2023-11-19T09:00:14;97210.56;;;4.15
73265;BMP280;61493;51.008;14.088;2023-11-19T09:02:39;97209.25;;;4.23
73265;BMP280;61493;51.008;14.088;2023-11-19T09:05:05;97209.97;;;4.24
73265;BMP280;61493;51.008;14.088;2023-11-19T09:07:32;97211.63;;;4.34
73265;BMP280;61493;51.008;14.088;2023-11-19T09:09:58;97216.84;;;4.34
73265;BMP280;61493;51.008;14.088;2023-11-19T09:12:23;97219.16;;;4.32
73265;BMP280;61493;51.008;14.088;2023-11-19T09:14:48;97230.72;;;4.34
73265;BMP280;61493;51.008;14.088;2023-11-19T09:17:14;97233.75;;;4.33
73265;BMP280;61493;51.008;14.088;2023-11-19T09:19:40;97234.31;;;4.24
73265;BMP280;61493;51.008;14.088;2023-11-19T09:22:05;97224.41;;;4.16
73265;BMP280;61493;51.008;14.088;2023-11-19T09:24:31;97228.41;;;4.20
73265;BMP280;61493;51.008;14.088;2023-11-19T09:26:56;97226.22;;;4.35
73265;BMP280;61493;51.008;14.088;2023-11-19T09:29:22;97234.41;;;4.37
73265;BMP280;61493;51.008;14.088;2023-11-19T09:31:47;97235.91;;;4.38
73265;BMP280;61493;51.008;14.088;2023-11-19T09:34:16;97234.22;;;4.44
73265;BMP280;61493;51.008;14.088;2023-11-19T09:36:41;97228.91;;;4.48
73265;BMP280;61493;51.008;14.088;2023-11-19T09:39:10;97228.75;;;4.55
73265;BMP280;61493;51.008;14.088;2023-11-19T09:41:35;97225.41;;;4.54
73265;BMP280;61493;51.008;14.088;2023-11-19T09:44:00;97222.66;;;4.42
73265;BMP280;61493;51.008;14.088;2023-11-19T09:46:26;97228.25;;;4.44
73265;BMP280;61493;51.008;14.088;2023-11-19T09:48:53;97223.75;;;4.44
73265;BMP280;61493;51.008;14.088;2023-11-19T09:51:20;97241.75;;;4.42
73265;BMP280;61493;51.008;14.088;2023-11-19T09:53:46;97246.94;;;4.46
73265;BMP280;61493;51.008;14.088;2023-11-19T09:56:12;97242.91;;;4.41
73265;BMP280;61493;51.008;14.088;2023-11-19T09:58:37;97241.72;;;4.46
73265;BMP280;61493;51.008;14.088;2023-11-19T10:01:03;97236.03;;;4.47
73265;BMP280;61493;51.008;14.088;2023-11-19T10:03:35;97215.03;;;4.64
73265;BMP280;61493;51.008;14.088;2023-11-19T10:06:06;97214.94;;;4.67
73265;BMP280;61493;51.008;14.088;2023-11-19T10:08:32;97207.47;;;4.82
73265;BMP280;61493;51.008;14.088;2023-11-19T10:10:58;97192.19;;;4.93
73265;BMP280;61493;51.008;14.088;2023-11-19T10:13:31;97194.94;;;5.02
73265;BMP280;61493;51.008;14.088;2023-11-19T10:15:56;97194.88;;;5.19
73265;BMP280;61493;51.008;14.088;2023-11-19T10:18:25;97202.00;;;5.60
73265;BMP280;61493;51.008;14.088;2023-11-19T10:20:52;97198.25;;;6.09
73265;BMP280;61493;51.008;14.088;2023-11-19T10:23:17;97205.94;;;6.51
73265;BMP280;61493;51.008;14.088;2023-11-19T10:25:43;97200.78;;;8.25
73265;BMP280;61493;51.008;14.088;2023-11-19T10:28:08;97208.19;;;11.06
73265;BMP280;61493;51.008;14.088;2023-11-19T10:30:33;97203.03;;;12.08
73265;BMP280;61493;51.008;14.088;2023-11-19T10:35:33;97211.78;;;8.41
73265;BMP280;61493;51.008;14.088;2023-11-19T10:37:59;97203.38;;;7.97
73265;BMP280;61493;51.008;14.088;2023-11-19T10:40:37;97190.97;;;7.66
73265;BMP280;61493;51.008;14.088;2023-11-19T10:43:05;97200.59;;;7.20
73265;BMP280;61493;51.008;14.088;2023-11-19T10:45:32;97183.28;;;6.66
73265;BMP280;61493;51.008;14.088;2023-11-19T10:47:59;97199.63;;;6.61
73265;BMP280;61493;51.008;14.088;2023-11-19T10:50:26;97181.72;;;6.56
73265;BMP280;61493;51.008;14.088;2023-11-19T10:52:56;97181.47;;;7.07
73265;BMP280;61493;51.008;14.088;2023-11-19T10:55:27;97186.19;;;7.43
73265;BMP280;61493;51.008;14.088;2023-11-19T10:57:52;97184.59;;;7.45
73265;BMP280;61493;51.008;14.088;2023-11-19T11:00:23;97185.47;;;7.42
73265;BMP280;61493;51.008;14.088;2023-11-19T11:02:54;97179.56;;;7.69
73265;BMP280;61493;51.008;14.088;2023-11-19T11:05:22;97180.97;;;8.75
73265;BMP280;61493;51.008;14.088;2023-11-19T11:07:48;97171.84;;;8.85
73265;BMP280;61493;51.008;14.088;2023-11-19T11:10:15;97171.91;;;9.76
73265;BMP280;61493;51.008;14.088;2023-11-19T11:12:41;97169.75;;;9.41
73265;BMP280;61493;51.008;14.088;2023-11-19T11:15:11;97185.19;;;8.91
73265;BMP280;61493;51.008;14.088;2023-11-19T11:17:39;97175.69;;;8.75
73265;BMP280;61493;51.008;14.088;2023-11-19T11:20:05;97186.09;;;8.60
73265;BMP280;61493;51.008;14.088;2023-11-19T11:22:50;97186.53;;;8.68
73265;BMP280;61493;51.008;14.088;2023-11-19T11:25:34;97177.13;;;8.76
73265;BMP280;61493;51.008;14.088;2023-11-19T11:28:41;97181.50;;;8.79
73265;BMP280;61493;51.008;14.088;2023-11-19T11:31:31;97190.34;;;8.76
73265;BMP280;61493;51.008;14.088;2023-11-19T11:34:09;97189.75;;;8.81
73265;BMP280;61493;51.008;14.088;2023-11-19T11:36:53;97184.31;;;8.85
73265;BMP280;61493;51.008;14.088;2023-11-19T11:39:22;97187.94;;;9.06
73265;BMP280;61493;51.008;14.088;2023-11-19T11:47:22;97193.03;;;9.19
73265;BMP280;61493;51.008;14.088;2023-11-19T11:49:51;97191.13;;;9.19
73265;BMP280;61493;51.008;14.088;2023-11-19T11:52:17;97190.28;;;9.13
73265;BMP280;61493;51.008;14.088;2023-11-19T11:54:43;97198.53;;;9.06
73265;BMP280;61493;51.008;14.088;2023-11-19T11:57:12;97195.56;;;9.04
73265;BMP280;61493;51.008;14.088;2023-11-19T12:02:08;97189.25;;;9.10
73265;BMP280;61493;51.008;14.088;2023-11-19T12:04:35;97178.47;;;9.23
73265;BMP280;61493;51.008;14.088;2023-11-19T12:09:29;97185.72;;;9.80
73265;BMP280;61493;51.008;14.088;2023-11-19T12:15:04;97165.50;;;9.68
73265;BMP280;61493;51.008;14.088;2023-11-19T12:20:01;97157.41;;;10.10
73265;BMP280;61493;51.008;14.088;2023-11-19T12:22:27;97171.91;;;10.53
73265;BMP280;61493;51.008;14.088;2023-11-19T12:24:55;97164.69;;;10.39
73265;BMP280;61493;51.008;14.088;2023-11-19T12:27:21;97164.34;;;10.46
73265;BMP280;61493;51.008;14.088;2023-11-19T12:29:49;97153.66;;;10.55
73265;BMP280;61493;51.008;14.088;2023-11-19T12:32:15;97153.28;;;10.48
73265;BMP280;61493;51.008;14.088;2023-11-19T12:34:40;97152.72;;;10.44
73265;BMP280;61493;51.008;14.088;2023-11-19T12:37:06;97145.53;;;10.44
73265;BMP280;61493;51.008;14.088;2023-11-19T12:39:32;97139.41;;;10.38
73265;BMP280;61493;51.008;14.088;2023-11-19T12:41:58;97134.47;;;10.46
73265;BMP280;61493;51.008;14.088;2023-11-19T12:44:26;97139.03;;;10.45
73265;BMP280;61493;51.008;14.088;2023-11-19T12:47:05;97133.94;;;10.56
73265;BMP280;61493;51.008;14.088;2023-11-19T12:49:36;97127.94;;;10.76
73265;BMP280;61493;51.008;14.088;2023-11-19T12:52:02;97126.94;;;11.24
73265;BMP280;61493;51.008;14.088;2023-11-19T12:54:36;97131.44;;;11.73
73265;BMP280;61493;51.008;14.088;2023-11-19T12:57:02;97122.25;;;11.95
73265;BMP280;61493;51.008;14.088;2023-11-19T12:59:29;97124.59;;;12.13
73265;BMP280;61493;51.008;14.088;2023-11-19T13:01:56;97122.69;;;12.13
73265;BMP280;61493;51.008;14.088;2023-11-19T13:04:22;97128.88;;;11.84
73265;BMP280;61493;51.008;14.088;2023-11-19T13:06:47;97117.09;;;11.85
73265;BMP280;61493;51.008;14.088;2023-11-19T13:11:48;97120.75;;;12.14
73265;BMP280;61493;51.008;14.088;2023-11-19T13:14:13;97117.63;;;11.89
73265;BMP280;61493;51.008;14.088;2023-11-19T13:16:39;97133.22;;;11.61
73265;BMP280;61493;51.008;14.088;2023-11-19T13:19:07;97139.84;;;11.31
73265;BMP280;61493;51.008;14.088;2023-11-19T13:21:36;97125.31;;;10.91
73265;BMP280;61493;51.008;14.088;2023-11-19T13:24:02;97133.34;;;10.67
73265;BMP280;61493;51.008;14.088;2023-11-19T13:26:27;97120.69;;;10.56
73265;BMP280;61493;51.008;14.088;2023-11-19T13:29:02;97130.63;;;10.47
73265;BMP280;61493;51.008;14.088;2023-11-19T13:31:38;97113.34;;;10.36
73265;BMP280;61493;51.008;14.088;2023-11-19T13:34:04;97108.53;;;10.50
73265;BMP280;61493;51.008;14.088;2023-11-19T13:36:30;97101.84;;;10.69
73265;BMP280;61493;51.008;14.088;2023-11-19T13:39:11;97095.34;;;10.70
73265;BMP280;61493;51.008;14.088;2023-11-19T13:41:44;97110.50;;;10.84
73265;BMP280;61493;51.008;14.088;2023-11-19T13:44:10;97097.16;;;10.79
73265;BMP280;61493;51.008;14.088;2023-11-19T13:46:44;97109.44;;;10.91
73265;BMP280;61493;51.008;14.088;2023-11-19T13:49:10;97112.44;;;10.69
73265;BMP280;61493;51.008;14.088;2023-11-19T13:51:35;97123.22;;;10.80
73265;BMP280;61493;51.008;14.088;2023-11-19T13:54:01;97121.41;;;10.57
73265;BMP280;61493;51.008;14.088;2023-11-19T13:56:26;97110.19;;;10.47
73265;BMP280;61493;51.008;14.088;2023-11-19T13:58:52;97119.75;;;10.30
73265;BMP280;61493;51.008;14.088;2023-11-19T14:01:18;97119.97;;;10.41
73265;BMP280;61493;51.008;14.088;2023-11-19T14:03:44;97119.09;;;10.20
73265;BMP280;61493;51.008;14.088;2023-11-19T14:06:12;97121.28;;;10.07
73265;BMP280;61493;51.008;14.088;2023-11-19T14:08:39;97114.59;;;9.97
73265;BMP280;61493;51.008;14.088;2023-11-19T14:11:07;97123.44;;;9.94
73265;BMP280;61493;51.008;14.088;2023-11-19T14:13:33;97131.88;;;9.83
73265;BMP280;61493;51.008;14.088;2023-11-19T14:15:59;97122.53;;;9.73
73265;BMP280;61493;51.008;14.088;2023-11-19T14:18:25;97122.09;;;9.74
73265;BMP280;61493;51.008;14.088;2023-11-19T14:20:52;97122.34;;;10.00
73265;BMP280;61493;51.008;14.088;2023-11-19T14:23:17;97123.72;;;9.96
73265;BMP280;61493;51.008;14.088;2023-11-19T14:25:43;97119.25;;;10.02